Terminal Aerodrome Forecast
Issued by NWS

Home | Current Version | Previous Version | Text Only | Print | Product List | Glossary On
Versions: 1 2 3 4 5 6 7 8 9 10 11 12 13 14 15 16 17 18
515
FTUS44 KLZK 280539
TAFPBF
TAF
KPBF 280539Z 2806/2906 15006KT P6SM SCT100 WS020/19035KT
     FM281500 18010G16KT P6SM SCT025 OVC100 WS020/19040KT
     FM282100 17010G20KT P6SM VCSH BKN050 OVC100
     FM290100 15008KT P6SM VCSH BKN030 OVC050=

USA.gov is the U.S. government's official web portal to all federal, state and local government web resources and services.